TX04 weather

Lucky Star Ranch Airport
Brenham, Texas, United States

Public forecast

Using degrees Fahrenheit for public forecast. Weather courtesy of forecast.io.

METAR (pilot weather report)

Closest report is Brenham Municipal Airport, 9.0 nm (16.7 km) ESE. Retrieved 2019/09/17 05:35 UTC (0 seconds ago):

K11R 170535Z AUTO 00000KT 10SM CLR 24/21 A2995 RMK AO2 T02410211

TAF (pilot weather forecast)

Forecast is more than 12 hours old.

Closest forecast is Easterwood Field, 19.8 nm (36.6 km) NNE. Retrieved 2019/09/16 00:34 UTC (1 day ago):

TAF KCLL 162332Z 1700/1724 09007KT P6SM FEW040 SCT090 FM171200 06007KT P6SM SCT020 SCT035 FM171800 09010KT P6SM VCSH SCT030 BKN050 FM172100 10011KT P6SM VCTS SCT035CB BKN050